Time;durP1;ratioP1;P1;durP2;ratioP2;P2;SDS_P1;SDS_P2;PMS_P1;PMS_P2;Temp;Humidity;BMP_temperature;BMP_pressure;BME280_temperature;BME280_humidity;BME280_pressure;Samples;Min_cycle;Max_cycle;Signal;HPM_P1;HPM_P2
2022/09/18 00:00:02;;;;;;;60.53;12.23;;;;;;;;;;4970485;28;20022;-57
2022/09/18 00:02:30;;;;;;;53.38;11.45;;;;;;;;;;4972631;28;20030;-57
2022/09/18 00:04:57;;;;;;;47.70;11.93;;;;;;;;;;4960888;28;20031;-56
2022/09/18 00:07:24;;;;;;;49.38;11.15;;;;;;;;;;4951690;28;20041;-56
2022/09/18 00:09:51;;;;;;;50.17;11.55;;;;;;;;;;4952102;28;20066;-58
2022/09/18 00:12:18;;;;;;;63.53;12.70;;;;;;;;;;4952026;28;20094;-56
2022/09/18 00:14:45;;;;;;;48.95;11.25;;;;;;;;;;4951637;28;20035;-49
2022/09/18 00:17:12;;;;;;;43.42;10.95;;;;;;;;;;4952074;28;20035;-54
2022/09/18 00:19:39;;;;;;;53.28;11.05;;;;;;;;;;4951974;28;20127;-51
2022/09/18 00:22:06;;;;;;;47.88;11.48;;;;;;;;;;4951713;28;20031;-53
2022/09/18 00:24:33;;;;;;;56.13;12.45;;;;;;;;;;4951636;28;20147;-56
2022/09/18 00:27:00;;;;;;;52.33;11.48;;;;;;;;;;4952124;28;20572;-53
2022/09/18 00:29:27;;;;;;;52.00;11.43;;;;;;;;;;4951919;28;20027;-57
2022/09/18 00:31:54;;;;;;;59.97;12.27;;;;;;;;;;4954605;28;20085;-54
2022/09/18 00:34:21;;;;;;;60.83;12.27;;;;;;;;;;4953895;28;20066;-51
2022/09/18 00:36:49;;;;;;;57.67;13.02;;;;;;;;;;4951759;28;20533;-53
2022/09/18 00:39:16;;;;;;;47.83;12.23;;;;;;;;;;4951937;28;20027;-53
2022/09/18 00:41:44;;;;;;;52.30;11.77;;;;;;;;;;4951598;28;20831;-54
2022/09/18 00:44:23;;;;;;;47.78;12.20;;;;;;;;;;4959298;28;20034;-54
2022/09/18 00:46:50;;;;;;;49.63;12.23;;;;;;;;;;4960341;28;20035;-55
2022/09/18 00:49:19;;;;;;;45.65;11.85;;;;;;;;;;4960175;28;20031;-53
2022/09/18 00:51:48;;;;;;;53.00;12.60;;;;;;;;;;4960063;28;20053;-54
2022/09/18 00:54:33;;;;;;;41.05;11.88;;;;;;;;;;4961792;28;20045;-51
2022/09/18 00:57:06;;;;;;;43.05;12.13;;;;;;;;;;4959921;28;20027;-50
2022/09/18 00:59:33;;;;;;;43.00;10.82;;;;;;;;;;4960714;28;20076;-55
2022/09/18 01:02:00;;;;;;;45.42;11.18;;;;;;;;;;4960248;28;20566;-55
2022/09/18 01:04:28;;;;;;;47.80;11.43;;;;;;;;;;4954944;28;20062;-55
2022/09/18 01:07:07;;;;;;;43.95;11.10;;;;;;;;;;4953824;28;20035;-54
2022/09/18 01:09:47;;;;;;;38.88;10.65;;;;;;;;;;4953571;28;20051;-55
2022/09/18 01:12:17;;;;;;;41.85;10.85;;;;;;;;;;4952184;28;20066;-53
2022/09/18 01:15:01;;;;;;;36.97;10.88;;;;;;;;;;4951163;28;20067;-54
2022/09/18 01:17:37;;;;;;;35.30;10.23;;;;;;;;;;4956493;28;20024;-54
2022/09/18 01:20:07;;;;;;;31.77;10.05;;;;;;;;;;4967631;28;20027;-57
2022/09/18 01:22:40;;;;;;;40.05;11.60;;;;;;;;;;4967159;28;20058;-55
2022/09/18 01:25:16;;;;;;;39.13;10.40;;;;;;;;;;4960455;28;20035;-54
2022/09/18 01:27:55;;;;;;;38.97;10.40;;;;;;;;;;4955004;28;20046;-53
2022/09/18 01:30:22;;;;;;;35.20;10.63;;;;;;;;;;4954739;28;20082;-54
2022/09/18 01:32:56;;;;;;;35.00;10.45;;;;;;;;;;4957152;28;20043;-54
2022/09/18 01:35:35;;;;;;;42.83;10.45;;;;;;;;;;4955295;28;20058;-53
2022/09/18 01:38:05;;;;;;;33.92;10.45;;;;;;;;;;4954747;28;20453;-54
2022/09/18 01:40:38;;;;;;;33.45;10.80;;;;;;;;;;4954843;28;20031;-52
2022/09/18 01:43:07;;;;;;;37.70;10.30;;;;;;;;;;4960689;28;20066;-54
2022/09/18 01:45:39;;;;;;;31.77;9.90;;;;;;;;;;4970218;28;20034;-54
2022/09/18 01:48:12;;;;;;;36.92;9.98;;;;;;;;;;4957994;28;20548;-57
2022/09/18 01:50:42;;;;;;;36.97;10.82;;;;;;;;;;4954537;28;20121;-56
2022/09/18 01:53:13;;;;;;;31.50;10.13;;;;;;;;;;4954134;28;20155;-55
2022/09/18 01:55:41;;;;;;;33.28;10.32;;;;;;;;;;4955007;28;20031;-56
2022/09/18 01:58:09;;;;;;;32.92;10.88;;;;;;;;;;4954590;28;20055;-57
2022/09/18 02:00:38;;;;;;;35.22;9.35;;;;;;;;;;4955711;28;20486;-55
2022/09/18 02:03:05;;;;;;;26.25;10.02;;;;;;;;;;4954476;28;20101;-54
2022/09/18 02:05:35;;;;;;;32.60;10.68;;;;;;;;;;4954595;28;20109;-56
2022/09/18 02:08:02;;;;;;;23.05;8.82;;;;;;;;;;4953123;28;20397;-54
2022/09/18 02:10:31;;;;;;;34.55;10.57;;;;;;;;;;4954939;28;20496;-55
2022/09/18 02:13:00;;;;;;;34.20;10.10;;;;;;;;;;4954660;28;20043;-53
2022/09/18 02:15:28;;;;;;;34.45;9.95;;;;;;;;;;4954861;28;20027;-54
2022/09/18 02:17:57;;;;;;;28.80;9.60;;;;;;;;;;4954987;28;20481;-56
2022/09/18 02:20:29;;;;;;;29.60;9.07;;;;;;;;;;4961632;28;20067;-55
2022/09/18 02:22:58;;;;;;;28.45;8.90;;;;;;;;;;4967496;28;20030;-54
2022/09/18 02:25:33;;;;;;;33.47;9.05;;;;;;;;;;4967644;28;20030;-56
2022/09/18 02:28:00;;;;;;;32.97;9.02;;;;;;;;;;4967175;28;20105;-56
2022/09/18 02:30:28;;;;;;;29.92;8.85;;;;;;;;;;4967171;28;20365;-55
2022/09/18 02:32:55;;;;;;;27.42;8.38;;;;;;;;;;4966895;28;20031;-55
2022/09/18 02:35:25;;;;;;;32.92;9.43;;;;;;;;;;4967065;28;20042;-55
2022/09/18 02:37:56;;;;;;;23.70;8.35;;;;;;;;;;4959431;28;20026;-57
2022/09/18 02:40:38;;;;;;;31.02;9.10;;;;;;;;;;4967834;28;20481;-56
2022/09/18 02:43:24;;;;;;;29.75;8.75;;;;;;;;;;4966737;28;20031;-53
2022/09/18 02:45:51;;;;;;;24.85;7.85;;;;;;;;;;4957710;28;20082;-55
2022/09/18 02:48:27;;;;;;;25.23;7.60;;;;;;;;;;4954178;28;20409;-56
2022/09/18 02:51:03;;;;;;;28.33;8.30;;;;;;;;;;4954033;28;20039;-55
2022/09/18 02:53:30;;;;;;;24.52;7.50;;;;;;;;;;4962234;28;20441;-54
2022/09/18 02:56:21;;;;;;;29.73;8.68;;;;;;;;;;4962520;28;20475;-59
2022/09/18 02:58:52;;;;;;;26.63;8.32;;;;;;;;;;4965704;28;20043;-58
2022/09/18 03:01:21;;;;;;;21.77;7.68;;;;;;;;;;4963851;28;20160;-54
2022/09/18 03:03:49;;;;;;;22.88;7.90;;;;;;;;;;4954076;28;20059;-59
2022/09/18 03:06:16;;;;;;;29.02;8.27;;;;;;;;;;4953891;28;20082;-57
2022/09/18 03:08:43;;;;;;;27.77;8.93;;;;;;;;;;4954513;28;20050;-57
2022/09/18 03:11:10;;;;;;;21.40;7.03;;;;;;;;;;4960068;28;20078;-55
2022/09/18 03:13:37;;;;;;;28.92;7.43;;;;;;;;;;4971189;28;20104;-57
2022/09/18 03:16:04;;;;;;;27.27;7.15;;;;;;;;;;4964739;28;20120;-57
2022/09/18 03:18:31;;;;;;;24.63;7.10;;;;;;;;;;4970876;28;20041;-56
2022/09/18 03:20:58;;;;;;;35.35;7.90;;;;;;;;;;4955082;28;20046;-55
2022/09/18 03:23:25;;;;;;;47.10;8.48;;;;;;;;;;4973436;28;20030;-56
2022/09/18 03:25:52;;;;;;;29.15;7.72;;;;;;;;;;4973632;28;20034;-57
2022/09/18 03:28:19;;;;;;;27.83;8.13;;;;;;;;;;4973558;28;20031;-57
2022/09/18 03:30:46;;;;;;;24.63;7.38;;;;;;;;;;4972179;28;20097;-57
2022/09/18 03:33:13;;;;;;;19.35;6.85;;;;;;;;;;4973480;28;20073;-57
2022/09/18 03:35:40;;;;;;;30.55;6.80;;;;;;;;;;4970843;28;20058;-58
2022/09/18 03:38:07;;;;;;;18.58;7.05;;;;;;;;;;4971804;28;20074;-57
2022/09/18 03:40:34;;;;;;;23.92;7.15;;;;;;;;;;4972141;28;20113;-57
2022/09/18 03:43:01;;;;;;;23.60;6.70;;;;;;;;;;4971772;28;20027;-57
2022/09/18 03:45:28;;;;;;;20.40;6.57;;;;;;;;;;4971673;28;20038;-57
2022/09/18 03:47:55;;;;;;;25.00;7.00;;;;;;;;;;4971548;28;20093;-58
2022/09/18 03:50:22;;;;;;;24.42;6.88;;;;;;;;;;4964501;28;20046;-57
2022/09/18 03:52:49;;;;;;;24.80;6.88;;;;;;;;;;4971634;28;20412;-57
2022/09/18 03:55:16;;;;;;;23.20;6.30;;;;;;;;;;4973147;28;20034;-58
2022/09/18 03:57:45;;;;;;;20.80;6.60;;;;;;;;;;4971921;28;20031;-57
2022/09/18 04:00:13;;;;;;;19.58;6.15;;;;;;;;;;4973007;28;20429;-56
2022/09/18 04:02:40;;;;;;;28.48;6.88;;;;;;;;;;4972864;28;20400;-57
2022/09/18 04:05:07;;;;;;;19.38;6.03;;;;;;;;;;4973412;28;20376;-57
2022/09/18 04:07:34;;;;;;;22.25;6.28;;;;;;;;;;4973220;28;20057;-54
2022/09/18 04:10:02;;;;;;;21.63;6.53;;;;;;;;;;4973569;28;20027;-55
2022/09/18 04:12:29;;;;;;;20.67;6.03;;;;;;;;;;4973578;28;20038;-57
2022/09/18 04:14:56;;;;;;;17.73;5.55;;;;;;;;;;4973427;28;20495;-57
2022/09/18 04:17:22;;;;;;;22.55;6.53;;;;;;;;;;4973673;28;20077;-56
2022/09/18 04:19:49;;;;;;;17.98;6.20;;;;;;;;;;4973786;28;20034;-57
2022/09/18 04:22:16;;;;;;;14.60;5.80;;;;;;;;;;4973511;28;20492;-55
2022/09/18 04:24:45;;;;;;;19.75;5.65;;;;;;;;;;4956255;28;20058;-56
2022/09/18 04:27:12;;;;;;;19.02;5.95;;;;;;;;;;4968656;28;20034;-57
2022/09/18 04:29:39;;;;;;;16.88;5.55;;;;;;;;;;4969990;28;20424;-58
2022/09/18 04:32:06;;;;;;;19.70;6.13;;;;;;;;;;4971108;28;20022;-57
2022/09/18 04:34:33;;;;;;;23.67;6.43;;;;;;;;;;4973300;28;20110;-55
2022/09/18 04:37:00;;;;;;;20.88;6.38;;;;;;;;;;4973410;28;20078;-57
2022/09/18 04:39:27;;;;;;;26.67;6.47;;;;;;;;;;4973251;28;20027;-56
2022/09/18 04:41:54;;;;;;;20.77;5.55;;;;;;;;;;4973289;28;20089;-58
2022/09/18 04:44:21;;;;;;;17.55;5.57;;;;;;;;;;4973526;28;20027;-56
2022/09/18 04:46:48;;;;;;;20.42;5.63;;;;;;;;;;4973449;28;20081;-56
2022/09/18 04:49:15;;;;;;;16.50;5.53;;;;;;;;;;4973381;28;20041;-57
2022/09/18 04:51:42;;;;;;;15.10;4.90;;;;;;;;;;4972954;28;20030;-56
2022/09/18 04:54:09;;;;;;;21.90;6.32;;;;;;;;;;4973279;28;20045;-57
2022/09/18 04:56:36;;;;;;;20.15;5.95;;;;;;;;;;4975229;28;20054;-56
2022/09/18 04:59:03;;;;;;;19.95;5.55;;;;;;;;;;4976758;28;20074;-54
2022/09/18 05:01:30;;;;;;;16.08;5.35;;;;;;;;;;4983439;28;20581;-57
2022/09/18 05:03:57;;;;;;;20.60;5.28;;;;;;;;;;4996331;28;20487;-57
2022/09/18 05:06:24;;;;;;;15.85;4.85;;;;;;;;;;4996478;28;20030;-55
2022/09/18 05:08:51;;;;;;;18.33;5.72;;;;;;;;;;4996482;28;20030;-56
2022/09/18 05:11:18;;;;;;;16.92;5.57;;;;;;;;;;4996206;28;20102;-55
2022/09/18 05:13:48;;;;;;;18.77;5.65;;;;;;;;;;4996381;28;20508;-56
2022/09/18 05:16:15;;;;;;;16.77;5.57;;;;;;;;;;4996069;28;20488;-56
2022/09/18 05:18:42;;;;;;;16.00;5.43;;;;;;;;;;4995610;28;20472;-56
2022/09/18 05:21:09;;;;;;;15.38;5.25;;;;;;;;;;4996147;28;20030;-56
2022/09/18 05:23:36;;;;;;;20.48;5.75;;;;;;;;;;4996171;28;20488;-57
2022/09/18 05:26:04;;;;;;;18.90;5.38;;;;;;;;;;4996057;28;20133;-56
2022/09/18 05:28:30;;;;;;;17.77;4.53;;;;;;;;;;4996040;28;20164;-56
2022/09/18 05:30:58;;;;;;;14.13;4.50;;;;;;;;;;4995855;28;20465;-56
2022/09/18 05:33:25;;;;;;;16.00;5.05;;;;;;;;;;4995891;28;20046;-56
2022/09/18 05:35:56;;;;;;;16.17;5.32;;;;;;;;;;4996037;28;20029;-56
2022/09/18 05:38:23;;;;;;;11.15;4.50;;;;;;;;;;4995756;28;20030;-56
2022/09/18 05:40:50;;;;;;;16.05;4.95;;;;;;;;;;4995887;28;20045;-56
2022/09/18 05:43:18;;;;;;;15.40;4.85;;;;;;;;;;4995768;28;20031;-56
2022/09/18 05:45:45;;;;;;;12.18;5.05;;;;;;;;;;4995581;28;20515;-55
2022/09/18 05:48:12;;;;;;;15.18;5.05;;;;;;;;;;4995758;28;20030;-56
2022/09/18 05:50:41;;;;;;;12.70;4.28;;;;;;;;;;4995614;28;20035;-56
2022/09/18 05:53:10;;;;;;;13.07;4.97;;;;;;;;;;4995199;28;20054;-56
2022/09/18 05:55:38;;;;;;;15.40;4.97;;;;;;;;;;4995252;28;20031;-56
2022/09/18 05:58:06;;;;;;;12.23;4.72;;;;;;;;;;4995375;28;20030;-56
2022/09/18 06:00:34;;;;;;;12.30;4.75;;;;;;;;;;4995586;28;20058;-55
2022/09/18 06:03:03;;;;;;;12.45;4.90;;;;;;;;;;4973793;28;20434;-56
2022/09/18 06:05:31;;;;;;;13.70;4.60;;;;;;;;;;4976096;28;20127;-56
2022/09/18 06:07:59;;;;;;;17.85;4.93;;;;;;;;;;4975365;28;20075;-56
2022/09/18 06:10:26;;;;;;;14.32;4.95;;;;;;;;;;4975728;28;20085;-54
2022/09/18 06:13:02;;;;;;;13.75;4.97;;;;;;;;;;4975888;28;20117;-56
2022/09/18 06:15:29;;;;;;;11.00;4.28;;;;;;;;;;4975584;28;20035;-56
2022/09/18 06:17:56;;;;;;;12.98;4.32;;;;;;;;;;4975715;28;20037;-54
2022/09/18 06:20:23;;;;;;;12.20;4.70;;;;;;;;;;4975593;28;20035;-55
2022/09/18 06:22:50;;;;;;;12.10;5.15;;;;;;;;;;4975566;28;20034;-56
2022/09/18 06:25:20;;;;;;;15.20;4.80;;;;;;;;;;4975572;28;20034;-56
2022/09/18 06:27:57;;;;;;;9.80;4.00;;;;;;;;;;4975467;28;20035;-56
2022/09/18 06:30:31;;;;;;;12.65;4.32;;;;;;;;;;4975431;28;20026;-56
2022/09/18 06:33:05;;;;;;;8.80;4.10;;;;;;;;;;4975270;28;20370;-56
2022/09/18 06:35:33;;;;;;;9.30;4.10;;;;;;;;;;4975367;28;20031;-56
2022/09/18 06:38:01;;;;;;;8.77;4.00;;;;;;;;;;4975173;28;20125;-56
2022/09/18 06:40:29;;;;;;;12.80;4.55;;;;;;;;;;4975075;28;20045;-56
2022/09/18 06:42:56;;;;;;;12.85;4.28;;;;;;;;;;4975196;28;20026;-56
2022/09/18 06:45:26;;;;;;;10.30;4.72;;;;;;;;;;4975121;28;20047;-56
2022/09/18 06:47:54;;;;;;;12.35;4.97;;;;;;;;;;4974550;28;20035;-55
2022/09/18 06:50:22;;;;;;;10.90;4.65;;;;;;;;;;4974528;28;20546;-55
2022/09/18 06:52:49;;;;;;;11.07;4.50;;;;;;;;;;4974987;28;20046;-55
2022/09/18 06:55:17;;;;;;;8.60;4.05;;;;;;;;;;4974893;28;20117;-56
2022/09/18 06:57:44;;;;;;;10.52;4.35;;;;;;;;;;4957516;28;20074;-56
2022/09/18 07:00:11;;;;;;;10.73;3.90;;;;;;;;;;4974982;28;20050;-56
2022/09/18 07:02:38;;;;;;;10.68;4.22;;;;;;;;;;4974775;28;20051;-55
2022/09/18 07:05:05;;;;;;;11.20;4.00;;;;;;;;;;4974859;28;20037;-57
2022/09/18 07:07:32;;;;;;;10.30;4.55;;;;;;;;;;4974958;28;20077;-59
2022/09/18 07:09:59;;;;;;;12.02;4.60;;;;;;;;;;4974646;28;20023;-56
2022/09/18 07:12:28;;;;;;;12.85;3.97;;;;;;;;;;4974593;28;20015;-56
2022/09/18 07:14:55;;;;;;;11.65;3.92;;;;;;;;;;4974548;28;20093;-56
2022/09/18 07:17:22;;;;;;;13.23;4.07;;;;;;;;;;4974637;28;20033;-55
2022/09/18 07:19:49;;;;;;;8.50;3.90;;;;;;;;;;4973891;28;20085;-54
2022/09/18 07:22:16;;;;;;;13.18;4.75;;;;;;;;;;4974227;28;20023;-56
2022/09/18 07:24:43;;;;;;;8.38;3.97;;;;;;;;;;4974526;28;20034;-55
2022/09/18 07:27:10;;;;;;;10.45;4.00;;;;;;;;;;4974373;28;20027;-56
2022/09/18 07:29:37;;;;;;;12.45;4.20;;;;;;;;;;4974486;28;20106;-56
2022/09/18 07:32:04;;;;;;;10.25;3.90;;;;;;;;;;4974415;28;20022;-56
2022/09/18 07:34:31;;;;;;;11.35;4.25;;;;;;;;;;4974012;28;20035;-56
2022/09/18 07:36:58;;;;;;;10.57;3.90;;;;;;;;;;4973975;28;20478;-54
2022/09/18 07:39:25;;;;;;;9.07;4.03;;;;;;;;;;4974225;28;20030;-57
2022/09/18 07:41:52;;;;;;;10.63;4.13;;;;;;;;;;4974021;28;20031;-56
2022/09/18 07:44:19;;;;;;;9.20;3.83;;;;;;;;;;4974162;28;20038;-56
2022/09/18 07:46:46;;;;;;;8.63;3.65;;;;;;;;;;4973922;28;20019;-56
2022/09/18 07:49:13;;;;;;;9.27;4.10;;;;;;;;;;4973944;28;20038;-57
2022/09/18 07:51:40;;;;;;;9.25;3.80;;;;;;;;;;4973568;28;20026;-58
2022/09/18 07:54:11;;;;;;;10.65;4.25;;;;;;;;;;4981941;28;20030;-57
2022/09/18 07:56:42;;;;;;;9.63;3.80;;;;;;;;;;4993264;28;20030;-56
2022/09/18 07:59:14;;;;;;;11.55;4.28;;;;;;;;;;4993301;28;20477;-56
2022/09/18 08:01:44;;;;;;;10.57;4.10;;;;;;;;;;4993255;28;20481;-56
2022/09/18 08:04:19;;;;;;;13.27;3.72;;;;;;;;;;4993389;28;20499;-56
2022/09/18 08:06:53;;;;;;;9.90;4.00;;;;;;;;;;4993331;28;20026;-56
2022/09/18 08:09:23;;;;;;;8.93;3.72;;;;;;;;;;4992633;28;20459;-55
2022/09/18 08:11:52;;;;;;;8.48;3.70;;;;;;;;;;4992949;28;20026;-54
2022/09/18 08:14:19;;;;;;;10.27;4.13;;;;;;;;;;4992922;28;20404;-55
2022/09/18 08:16:46;;;;;;;8.57;3.75;;;;;;;;;;4991930;28;20407;-56
2022/09/18 08:19:13;;;;;;;8.60;3.97;;;;;;;;;;4993287;28;20025;-57
2022/09/18 08:21:40;;;;;;;8.32;3.72;;;;;;;;;;4992753;28;20453;-56
2022/09/18 08:24:19;;;;;;;7.97;3.95;;;;;;;;;;4993315;28;20419;-57
2022/09/18 08:26:46;;;;;;;10.27;3.60;;;;;;;;;;4993097;28;20034;-56
2022/09/18 08:29:19;;;;;;;9.38;3.65;;;;;;;;;;4989653;28;20058;-56
2022/09/18 08:31:47;;;;;;;7.18;3.75;;;;;;;;;;4993012;28;20026;-55
2022/09/18 08:34:14;;;;;;;8.43;3.75;;;;;;;;;;4992152;28;20073;-54
2022/09/18 08:36:41;;;;;;;9.48;3.00;;;;;;;;;;4997102;28;20018;-55
2022/09/18 08:39:09;;;;;;;11.00;3.83;;;;;;;;;;4997087;28;20022;-58
2022/09/18 08:41:42;;;;;;;7.93;3.78;;;;;;;;;;4996847;28;20053;-55
2022/09/18 08:44:23;;;;;;;8.23;3.47;;;;;;;;;;4996720;28;20069;-57
2022/09/18 08:46:56;;;;;;;9.20;3.83;;;;;;;;;;4996849;28;20029;-56
2022/09/18 08:49:31;;;;;;;7.22;3.75;;;;;;;;;;4996696;28;20049;-56
2022/09/18 08:52:09;;;;;;;10.10;4.28;;;;;;;;;;4996431;28;20050;-57
2022/09/18 08:54:39;;;;;;;6.75;3.45;;;;;;;;;;4996645;28;20030;-56
2022/09/18 08:57:26;;;;;;;8.30;3.55;;;;;;;;;;4996683;28;20049;-56
2022/09/18 09:00:10;;;;;;;7.28;3.58;;;;;;;;;;4986730;28;20035;-56
2022/09/18 09:02:49;;;;;;;8.07;3.75;;;;;;;;;;4996338;28;20085;-56
2022/09/18 09:05:19;;;;;;;8.40;3.30;;;;;;;;;;4996514;28;20037;-56
2022/09/18 09:07:58;;;;;;;7.88;3.60;;;;;;;;;;4996492;28;20097;-57
2022/09/18 09:10:31;;;;;;;9.20;3.70;;;;;;;;;;4996370;28;20025;-57
2022/09/18 09:13:04;;;;;;;8.43;3.70;;;;;;;;;;4996432;28;20030;-57
2022/09/18 09:15:37;;;;;;;12.82;3.90;;;;;;;;;;4996081;28;20041;-56
2022/09/18 09:18:23;;;;;;;12.57;3.72;;;;;;;;;;4996320;28;20242;-56
2022/09/18 09:20:57;;;;;;;9.52;3.65;;;;;;;;;;4996285;28;20026;-57
2022/09/18 09:23:27;;;;;;;11.40;3.78;;;;;;;;;;4996107;28;20488;-54
2022/09/18 09:26:06;;;;;;;20.10;3.50;;;;;;;;;;4996161;28;20026;-57
2022/09/18 09:28:33;;;;;;;7.88;3.67;;;;;;;;;;4995969;28;20624;-55
2022/09/18 09:31:04;;;;;;;12.68;4.20;;;;;;;;;;4996018;28;20057;-57
2022/09/18 09:33:35;;;;;;;7.85;3.42;;;;;;;;;;4995946;28;20027;-57
2022/09/18 09:36:08;;;;;;;10.90;4.18;;;;;;;;;;4996039;28;20205;-57
2022/09/18 09:38:35;;;;;;;9.02;3.88;;;;;;;;;;4995911;28;20031;-55
2022/09/18 09:41:16;;;;;;;5.97;3.42;;;;;;;;;;4995491;28;20030;-57
2022/09/18 09:43:47;;;;;;;8.75;3.47;;;;;;;;;;4995665;28;20070;-53
2022/09/18 09:46:21;;;;;;;9.70;3.55;;;;;;;;;;4995738;28;20030;-57
2022/09/18 09:49:05;;;;;;;6.90;3.33;;;;;;;;;;4989186;28;20038;-56
2022/09/18 09:51:35;;;;;;;9.25;3.80;;;;;;;;;;4981095;28;20038;-57
2022/09/18 09:54:02;;;;;;;8.85;3.75;;;;;;;;;;4975991;28;20543;-57
2022/09/18 09:56:34;;;;;;;9.55;4.05;;;;;;;;;;4976254;28;20035;-57
2022/09/18 09:59:04;;;;;;;7.97;3.80;;;;;;;;;;4976077;28;20101;-55
2022/09/18 10:01:37;;;;;;;9.13;3.60;;;;;;;;;;4975965;28;20039;-54
2022/09/18 10:04:30;;;;;;;8.02;3.30;;;;;;;;;;4976072;28;20031;-57
2022/09/18 10:07:01;;;;;;;8.00;3.90;;;;;;;;;;4976167;28;20042;-56
2022/09/18 10:09:48;;;;;;;9.80;3.50;;;;;;;;;;4975825;28;20682;-56
2022/09/18 10:12:33;;;;;;;7.65;3.53;;;;;;;;;;4975410;28;20062;-57
2022/09/18 10:15:15;;;;;;;9.63;3.42;;;;;;;;;;4975832;28;20505;-57
2022/09/18 10:17:43;;;;;;;6.50;3.25;;;;;;;;;;4975867;28;20519;-56
2022/09/18 10:20:17;;;;;;;10.20;3.75;;;;;;;;;;4958371;28;20122;-56
2022/09/18 10:22:46;;;;;;;10.93;3.90;;;;;;;;;;4975831;28;20027;-56
2022/09/18 10:25:17;;;;;;;6.68;3.13;;;;;;;;;;4975562;28;20065;-57
2022/09/18 10:27:44;;;;;;;6.40;3.53;;;;;;;;;;4975707;28;20038;-57
2022/09/18 10:30:14;;;;;;;7.30;3.55;;;;;;;;;;4975545;28;20027;-56
2022/09/18 10:32:41;;;;;;;7.80;3.17;;;;;;;;;;4975307;28;20027;-57
2022/09/18 10:35:26;;;;;;;8.90;3.45;;;;;;;;;;4975504;28;20085;-54
2022/09/18 10:37:53;;;;;;;9.88;3.78;;;;;;;;;;4975549;28;20031;-56
2022/09/18 10:40:31;;;;;;;11.00;3.55;;;;;;;;;;4975167;28;20038;-55
2022/09/18 10:42:59;;;;;;;7.90;3.70;;;;;;;;;;4975478;28;20034;-55
2022/09/18 10:45:36;;;;;;;8.35;3.13;;;;;;;;;;4975331;28;20041;-57
2022/09/18 10:48:06;;;;;;;7.53;3.30;;;;;;;;;;4975399;28;20031;-55
2022/09/18 10:50:33;;;;;;;8.02;3.13;;;;;;;;;;4975269;28;20037;-56
2022/09/18 10:53:20;;;;;;;5.88;2.63;;;;;;;;;;4974446;28;20097;-56
2022/09/18 10:55:49;;;;;;;7.03;3.20;;;;;;;;;;4975109;28;20033;-57
2022/09/18 10:58:16;;;;;;;7.55;3.45;;;;;;;;;;4957622;28;20086;-55
2022/09/18 11:00:57;;;;;;;4.93;2.72;;;;;;;;;;4975080;28;20031;-56
2022/09/18 11:03:36;;;;;;;6.07;2.65;;;;;;;;;;4975047;28;20031;-56
2022/09/18 11:06:05;;;;;;;6.60;3.00;;;;;;;;;;4975067;28;20062;-56
2022/09/18 11:08:34;;;;;;;8.40;3.03;;;;;;;;;;4974943;28;20027;-56
2022/09/18 11:11:06;;;;;;;5.05;2.53;;;;;;;;;;4974869;28;20033;-57
2022/09/18 11:13:35;;;;;;;5.55;2.80;;;;;;;;;;4974778;28;20037;-56
2022/09/18 11:16:04;;;;;;;4.85;2.40;;;;;;;;;;4974647;28;20027;-57
2022/09/18 11:18:32;;;;;;;5.32;2.50;;;;;;;;;;4974205;28;20089;-56
2022/09/18 11:21:01;;;;;;;4.47;2.47;;;;;;;;;;4974634;28;20117;-56
2022/09/18 11:23:29;;;;;;;7.60;2.97;;;;;;;;;;4973869;28;20034;-56
2022/09/18 11:26:25;;;;;;;6.32;2.47;;;;;;;;;;4974048;28;20096;-57
2022/09/18 11:29:06;;;;;;;5.25;2.60;;;;;;;;;;4958352;28;20118;-56
2022/09/18 11:31:41;;;;;;;6.88;2.72;;;;;;;;;;4974385;28;20058;-55
2022/09/18 11:34:17;;;;;;;5.40;2.22;;;;;;;;;;4974544;28;20041;-57
2022/09/18 11:36:47;;;;;;;6.90;2.65;;;;;;;;;;4956837;28;20452;-55
2022/09/18 11:39:18;;;;;;;4.72;2.45;;;;;;;;;;4974414;28;20029;-57
2022/09/18 11:41:48;;;;;;;9.18;2.40;;;;;;;;;;4974252;28;20066;-56
2022/09/18 11:44:26;;;;;;;5.43;2.42;;;;;;;;;;4974076;28;20035;-57
2022/09/18 11:46:56;;;;;;;5.03;2.58;;;;;;;;;;4974341;28;20455;-56
2022/09/18 11:49:30;;;;;;;6.22;2.17;;;;;;;;;;4974094;28;20035;-56
2022/09/18 11:51:57;;;;;;;4.35;2.30;;;;;;;;;;4973792;28;20420;-57
2022/09/18 11:54:32;;;;;;;6.25;2.45;;;;;;;;;;4974211;28;20555;-57
2022/09/18 11:57:00;;;;;;;5.20;2.67;;;;;;;;;;4974218;28;20528;-56
2022/09/18 11:59:45;;;;;;;4.50;2.40;;;;;;;;;;4974090;28;20564;-57
2022/09/18 12:02:17;;;;;;;4.82;2.20;;;;;;;;;;4973873;28;20031;-57
2022/09/18 12:04:48;;;;;;;4.70;2.50;;;;;;;;;;4973784;28;20081;-57
2022/09/18 12:07:27;;;;;;;3.65;1.80;;;;;;;;;;4973977;28;20516;-57
2022/09/18 12:10:00;;;;;;;5.30;2.03;;;;;;;;;;4973731;28;20387;-55
2022/09/18 12:12:34;;;;;;;3.95;1.90;;;;;;;;;;4973940;28;20043;-57
2022/09/18 12:15:04;;;;;;;5.05;2.28;;;;;;;;;;4973758;28;20038;-56
2022/09/18 12:17:33;;;;;;;;;;;;;;;;;;4974474;28;20051;-56
2022/09/18 12:20:03;;;;;;;5.68;2.45;;;;;;;;;;4973741;28;20372;-57
2022/09/18 12:22:41;;;;;;;4.25;2.10;;;;;;;;;;4956333;28;20033;-56
2022/09/18 12:25:14;;;;;;;6.82;2.28;;;;;;;;;;4973808;28;20110;-57
2022/09/18 12:28:06;;;;;;;4.18;2.30;;;;;;;;;;4973856;28;20038;-57
2022/09/18 12:30:56;;;;;;;3.95;2.05;;;;;;;;;;4964834;28;20039;-57
2022/09/18 12:33:38;;;;;;;2.97;1.83;;;;;;;;;;4937747;28;20505;-57
2022/09/18 12:36:32;;;;;;;5.00;2.42;;;;;;;;;;4973627;28;20041;-57
2022/09/18 12:38:59;;;;;;;3.33;1.70;;;;;;;;;;4944758;28;20039;-58
2022/09/18 12:41:28;;;;;;;4.00;2.08;;;;;;;;;;4973398;28;20058;-57
2022/09/18 12:44:01;;;;;;;7.13;2.00;;;;;;;;;;4973597;28;20046;-57
2022/09/18 12:46:46;;;;;;;3.33;1.90;;;;;;;;;;4955995;28;20452;-55
2022/09/18 12:49:20;;;;;;;4.38;1.95;;;;;;;;;;4973537;28;20029;-57
2022/09/18 12:52:22;;;;;;;3.67;1.95;;;;;;;;;;4973258;28;20022;-57
2022/09/18 12:55:07;;;;;;;4.00;2.00;;;;;;;;;;4895115;29;20048;-56
2022/09/18 12:57:34;;;;;;;3.30;1.52;;;;;;;;;;4968106;28;20270;-55
2022/09/18 13:00:14;;;;;;;5.47;2.00;;;;;;;;;;4973442;28;20030;-57
2022/09/18 13:02:56;;;;;;;3.67;1.90;;;;;;;;;;4973299;28;20058;-57
2022/09/18 13:05:28;;;;;;;3.95;1.50;;;;;;;;;;4973327;28;20113;-57
2022/09/18 13:08:13;;;;;;;3.47;1.85;;;;;;;;;;4970355;28;20027;-57
2022/09/18 13:10:44;;;;;;;5.90;1.55;;;;;;;;;;4970992;28;20027;-57
2022/09/18 13:13:22;;;;;;;2.90;1.63;;;;;;;;;;4972711;28;20101;-59
2022/09/18 13:15:52;;;;;;;2.90;1.50;;;;;;;;;;4972874;28;20134;-57
2022/09/18 13:18:19;;;;;;;2.63;1.55;;;;;;;;;;4973171;28;20455;-57
2022/09/18 13:20:46;;;;;;;2.15;1.20;;;;;;;;;;4976231;28;20026;-57
2022/09/18 13:23:20;;;;;;;2.45;1.30;;;;;;;;;;4976329;28;20042;-57
2022/09/18 13:25:50;;;;;;;2.38;1.20;;;;;;;;;;4976249;28;20030;-55
2022/09/18 13:28:19;;;;;;;3.60;1.60;;;;;;;;;;4969515;28;20109;-55
2022/09/18 13:30:46;;;;;;;3.78;1.30;;;;;;;;;;4979156;28;20070;-58
2022/09/18 13:33:26;;;;;;;3.03;1.38;;;;;;;;;;4976177;28;20022;-57
2022/09/18 13:35:55;;;;;;;1.58;1.10;;;;;;;;;;4975950;28;20035;-57
2022/09/18 13:38:23;;;;;;;1.80;1.13;;;;;;;;;;4976015;28;20468;-57
2022/09/18 13:40:56;;;;;;;2.20;1.27;;;;;;;;;;4975835;28;20034;-56
2022/09/18 13:43:32;;;;;;;3.63;1.30;;;;;;;;;;4973480;28;20034;-53
2022/09/18 13:46:00;;;;;;;11.10;1.92;;;;;;;;;;4975795;28;20027;-57
2022/09/18 13:48:28;;;;;;;2.70;1.48;;;;;;;;;;4976344;28;20042;-57
2022/09/18 13:51:19;;;;;;;4.63;1.70;;;;;;;;;;4976978;28;20047;-57
2022/09/18 13:53:45;;;;;;;6.43;2.25;;;;;;;;;;4968913;28;20057;-57
2022/09/18 13:56:13;;;;;;;3.72;1.70;;;;;;;;;;4976219;28;20469;-56
2022/09/18 13:58:48;;;;;;;4.10;1.55;;;;;;;;;;4976251;28;20023;-57
2022/09/18 14:01:34;;;;;;;8.13;1.88;;;;;;;;;;4976014;28;20188;-58
2022/09/18 14:04:01;;;;;;;2.53;1.30;;;;;;;;;;4976301;28;20085;-57
2022/09/18 14:06:36;;;;;;;2.97;1.70;;;;;;;;;;4975803;28;20019;-58
2022/09/18 14:09:23;;;;;;;5.90;1.60;;;;;;;;;;4975801;28;20073;-56
2022/09/18 14:11:50;;;;;;;9.80;1.70;;;;;;;;;;4975750;28;20068;-57
2022/09/18 14:14:20;;;;;;;7.03;1.60;;;;;;;;;;4975241;28;20050;-56
2022/09/18 14:16:47;;;;;;;13.98;1.98;;;;;;;;;;4973723;28;20035;-57
2022/09/18 14:19:30;;;;;;;9.10;1.73;;;;;;;;;;4974882;28;20039;-57
2022/09/18 14:21:58;;;;;;;12.32;1.70;;;;;;;;;;4974837;28;20109;-56
2022/09/18 14:24:39;;;;;;;7.25;1.85;;;;;;;;;;4975305;28;20105;-57
2022/09/18 14:27:24;;;;;;;8.20;1.60;;;;;;;;;;4975331;28;20069;-55
2022/09/18 14:29:55;;;;;;;12.57;1.88;;;;;;;;;;4966640;28;20029;-53
2022/09/18 14:32:23;;;;;;;8.10;2.03;;;;;;;;;;4956809;28;20066;-56
2022/09/18 14:34:52;;;;;;;6.00;1.80;;;;;;;;;;4975128;28;20039;-54
2022/09/18 14:37:23;;;;;;;7.90;1.60;;;;;;;;;;4974997;28;20038;-56
2022/09/18 14:39:52;;;;;;;8.80;1.98;;;;;;;;;;4974953;28;20477;-52
2022/09/18 14:42:27;;;;;;;8.60;2.38;;;;;;;;;;4975434;28;20066;-55
2022/09/18 14:45:01;;;;;;;11.07;2.10;;;;;;;;;;4974374;28;20042;-55
2022/09/18 14:47:28;;;;;;;10.27;1.80;;;;;;;;;;4974743;28;20033;-55
2022/09/18 14:49:55;;;;;;;6.50;1.75;;;;;;;;;;4974426;28;20072;-57
2022/09/18 14:52:27;;;;;;;9.02;1.67;;;;;;;;;;4974778;28;20047;-56
2022/09/18 14:54:55;;;;;;;11.30;2.03;;;;;;;;;;4974929;28;20077;-53